| time (UTC) | temp C | wind direction | speed KPH | gust KPH | rain 1hr cm | rain 24hr cm | rain mn cm | humidity % | barometer mb |
| 20260510100009 | 13 | 285 | 0.0 | 0.0 | 0.23 | 2.01 | 2.01 | 94 | 1016.4 |
| 20260510094539 | 13 | 285 | 0.0 | 0.0 | 0.30 | 1.98 | 1.98 | 94 | 1016.5 |
| 20260510093006 | 13 | 285 | 0.0 | 0.0 | 0.36 | 1.96 | 1.96 | 93 | 1016.6 |
| 20260510091537 | 13 | 285 | 0.0 | 0.0 | 0.36 | 1.88 | 1.88 | 93 | 1016.6 |
| 20260510090034 | 13 | 285 | 0.0 | 0.0 | 0.30 | 1.78 | 1.78 | 93 | 1016.5 |
| 20260510084540 | 13 | 285 | 0.0 | 0.0 | 0.20 | 1.65 | 1.65 | 93 | 1016.6 |
| 20260510083104 | 13 | 284 | 0.0 | 0.0 | 0.18 | 1.60 | 1.60 | 92 | 1016.5 |
| 20260510081527 | 13 | 284 | 0.0 | 0.0 | 0.13 | 1.52 | 1.52 | 92 | 1016.4 |
| 20260510080006 | 13 | 285 | 0.0 | 0.0 | 0.08 | 1.45 | 1.45 | 91 | 1016.3 |
| 20260510074514 | 13 | 13 | 0.0 | 3.2 | 0.05 | 1.42 | 1.42 | 91 | 1016.3 |
| 20260510073056 | 13 | 53 | 0.0 | 3.2 | 0.05 | 1.42 | 1.42 | 91 | 1016.1 |
| 20260510071505 | 13 | 42 | 0.0 | 6.4 | 0.05 | 1.40 | 1.40 | 92 | 1016.2 |
| 20260510070019 | 13 | 8 | 0.0 | 1.6 | 0.13 | 1.40 | 1.40 | 92 | 1016.1 |
| 20260510064532 | 13 | 357 | 0.0 | 1.6 | 0.23 | 1.40 | 1.40 | 92 | 1016.1 |
| 20260510063027 | 13 | 287 | 0.0 | 14.5 | 0.43 | 1.37 | 1.37 | 92 | 1015.9 |
| 20260510061547 | 13 | 8 | 0.0 | 6.4 | 0.71 | 1.35 | 1.35 | 92 | 1015.9 |
| 20260510060043 | 13 | 3 | 0.0 | 0.0 | 1.14 | 1.27 | 1.27 | 92 | 1016.1 |
| 20260510054506 | 13 | 310 | 0.0 | 0.0 | 1.07 | 1.17 | 1.14 | 91 | 1016.1 |
| 20260510053042 | 13 | 316 | 0.0 | 4.8 | 0.81 | 0.91 | 0.91 | 91 | 1015.6 |
| 20260510051550 | 13 | 321 | 0.0 | 0.0 | 0.51 | 0.61 | 0.61 | 90 | 1015.3 |
| 20260510050032 | 13 | 300 | 0.0 | 0.0 | 0.08 | 0.13 | 0.13 | 89 | 1015.1 |
| 20260510044610 | 13 | 13 | 0.0 | 1.6 | 0.10 | 0.10 | 0.10 | 89 | 1014.7 |
| 20260510043006 | 13 | 334 | 0.0 | 0.0 | 0.10 | 0.10 | 0.10 | 88 | 1014.9 |
| 20260510041534 | 13 | 318 | 0.0 | 1.6 | 0.10 | 0.10 | 0.10 | 87 | 1014.8 |
| 20260510040048 | 14 | 300 | 0.0 | 1.6 | 0.05 | 0.05 | 0.05 | 85 | 1015.1 |
| 20260510034509 | 14 | 300 | 0.0 | 1.6 | 0.00 | 0.00 | 0.00 | 84 | 1015.1 |
| 20260510033020 | 14 | 113 | 0.0 | 0.0 | 0.00 | 0.00 | 0.00 | 83 | 1015.2 |
| 20260510031531 | 14 | 113 | 0.0 | 0.0 | 0.00 | 0.00 | 0.00 | 83 | 1015.3 |
| 20260510030008 | 15 | 113 | 0.0 | 0.0 | 0.00 | 0.00 | 0.00 | 81 | 1015.5 |
| 20260510024521 | 15 | 310 | 0.0 | 0.0 | 0.00 | 0.00 | 0.00 | 80 | 1015.5 |
| 20260510023034 | 14 | 13 | 0.0 | 1.6 | 0.00 | 0.00 | 0.00 | 81 | 1015.8 |
| 20260510021555 | 14 | 237 | 0.0 | 0.0 | 0.00 | 0.00 | 0.00 | 81 | 1016.0 |
| 20260510020101 | 15 | 102 | 0.0 | 0.0 | 0.00 | 0.00 | 0.00 | 80 | 1016.1 |
| 20260510014523 | 15 | 102 | 0.0 | 0.0 | 0.00 | 0.00 | 0.00 | 78 | 1016.1 |
| 20260510013036 | 15 | 298 | 0.0 | 0.0 | 0.00 | 0.00 | 0.00 | 79 | 1016.3 |
| 20260510011603 | 15 | 298 | 0.0 | 1.6 | 0.00 | 0.00 | 0.00 | 79 | 1015.9 |
| 20260510010014 | 14 | 354 | 0.0 | 1.6 | 0.00 | 0.00 | 0.00 | 80 | 1016.0 |
| 20260510004528 | 14 | 3 | 0.0 | 0.0 | 0.00 | 0.00 | 0.00 | 79 | 1016.0 |
| 20260510003043 | 14 | 3 | 0.0 | 0.0 | 0.00 | 0.00 | 0.00 | 79 | 1016.3 |
| 20260510001601 | 13 | 3 | 0.0 | 8.0 | 0.00 | 0.00 | 0.00 | 82 | 1016.6 |
| 20260510000126 | 12 | 322 | 0.0 | 0.0 | 0.00 | 0.00 | 0.00 | 84 | 1016.6 |
| 20260509234557 | 12 | 324 | 0.0 | 0.0 | 0.00 | 0.00 | 0.00 | 84 | 1016.6 |
| 20260509233009 | 12 | 324 | 0.0 | 0.0 | 0.00 | 0.00 | 0.00 | 84 | 1016.8 |
| 20260509231535 | 12 | 321 | 0.0 | 0.0 | 0.00 | 0.00 | 0.00 | 85 | 1016.8 |
| 20260509230105 | 12 | 321 | 0.0 | 0.0 | 0.00 | 0.00 | 0.00 | 85 | 1016.8 |
| 20260509224521 | 13 | 321 | 0.0 | 0.0 | 0.00 | 0.00 | 0.00 | 84 | 1016.6 |
| 20260509223032 | 13 | 320 | 0.0 | 0.0 | 0.00 | 0.00 | 0.00 | 83 | 1016.6 |
| 20260509221623 | 14 | 320 | 0.0 | 0.0 | 0.00 | 0.00 | 0.00 | 82 | 1016.8 |
| 20260509220015 | 14 | 320 | 0.0 | 0.0 | 0.00 | 0.00 | 0.00 | 80 | 1016.7 |
| 20260509214532 | 14 | 320 | 0.0 | 0.0 | 0.00 | 0.00 | 0.00 | 80 | 1016.7 |
| 20260509213059 | 14 | 320 | 0.0 | 0.0 | 0.00 | 0.00 | 0.00 | 81 | 1016.7 |
| 20260509211522 | 14 | 320 | 0.0 | 0.0 | 0.00 | 0.00 | 0.00 | 80 | 1016.6 |
| 20260509210024 | 15 | 320 | 0.0 | 0.0 | 0.00 | 0.00 | 0.00 | 79 | 1016.4 |
| 20260509204537 | 15 | 320 | 0.0 | 0.0 | 0.00 | 0.00 | 0.00 | 79 | 1016.5 |
| 20260509203046 | 15 | 320 | 0.0 | 0.0 | 0.00 | 0.00 | 0.00 | 79 | 1016.5 |
| 20260509201510 | 15 | 320 | 0.0 | 0.0 | 0.00 | 0.00 | 0.00 | 79 | 1016.3 |
| 20260509200018 | 15 | 320 | 0.0 | 0.0 | 0.00 | 0.00 | 0.00 | 77 | 1016.2 |
| 20260509194543 | 16 | 320 | 0.0 | 0.0 | 0.00 | 0.00 | 0.00 | 78 | 1015.8 |
| 20260509193053 | 16 | 320 | 0.0 | 0.0 | 0.00 | 0.00 | 0.00 | 77 | 1015.7 |
| 20260509191514 | 17 | 320 | 0.0 | 0.0 | 0.00 | 0.00 | 0.00 | 73 | 1015.6 |
| 20260509190004 | 18 | 320 | 0.0 | 0.0 | 0.00 | 0.00 | 0.00 | 73 | 1015.5 |
| 20260509184515 | 18 | 320 | 0.0 | 0.0 | 0.00 | 0.00 | 0.00 | 71 | 1015.6 |
| 20260509183026 | 19 | 320 | 0.0 | 0.0 | 0.00 | 0.00 | 0.00 | 67 | 1015.6 |
| 20260509181557 | 20 | 320 | 0.0 | 0.0 | 0.00 | 0.00 | 0.00 | 66 | 1015.4 |
| 20260509180057 | 21 | 320 | 0.0 | 0.0 | 0.00 | 0.00 | 0.00 | 62 | 1015.3 |
| 20260509174650 | 22 | 233 | 0.0 | 0.0 | 0.00 | 0.00 | 0.00 | 59 | 1015.3 |
| 20260509173028 | 22 | 233 | 0.0 | 0.0 | 0.00 | 0.00 | 0.00 | 54 | 1015.2 |
| 20260509171557 | 23 | 233 | 0.0 | 0.0 | 0.00 | 0.00 | 0.00 | 47 | 1015.3 |
| 20260509170004 | 24 | 233 | 0.0 | 0.0 | 0.00 | 0.00 | 0.00 | 45 | 1015.3 |
| 20260509164531 | 25 | 233 | 0.0 | 0.0 | 0.00 | 0.00 | 0.00 | 45 | 1015.5 |
| 20260509163105 | 24 | 233 | 0.0 | 0.0 | 0.00 | 0.00 | 0.00 | 45 | 1015.7 |
| 20260509161514 | 23 | 227 | 0.0 | 0.0 | 0.00 | 0.00 | 0.00 | 47 | 1015.6 |
| 20260509160011 | 23 | 229 | 0.0 | 0.0 | 0.00 | 0.00 | 0.00 | 45 | 1015.9 |
| 20260509154534 | 24 | 238 | 0.0 | 8.0 | 0.00 | 0.00 | 0.00 | 45 | 1015.9 |
| 20260509153051 | 24 | 242 | 0.0 | 6.4 | 0.00 | 0.00 | 0.00 | 45 | 1015.9 |
| 20260509151510 | 23 | 231 | 0.0 | 6.4 | 0.00 | 0.00 | 0.00 | 45 | 1016.0 |
| 20260509150026 | 23 | 249 | 0.0 | 12.9 | 0.00 | 0.00 | 0.00 | 47 | 1015.9 |
| 20260509144546 | 23 | 235 | 3.2 | 14.5 | 0.00 | 0.00 | 0.00 | 47 | 1015.9 |
| 20260509143014 | 23 | 242 | 3.2 | 16.1 | 0.00 | 0.00 | 0.00 | 48 | 1016.0 |
| 20260509141527 | 23 | 262 | 0.0 | 19.3 | 0.00 | 0.00 | 0.00 | 50 | 1016.0 |
| 20260509140033 | 24 | 226 | 1.6 | 14.5 | 0.00 | 0.00 | 0.00 | 48 | 1016.2 |
| 20260509134541 | 24 | 256 | 3.2 | 12.9 | 0.00 | 0.00 | 0.00 | 45 | 1016.4 |
| 20260509133059 | 23 | 327 | 0.0 | 8.0 | 0.00 | 0.00 | 0.00 | 47 | 1016.8 |
| 20260509131505 | 24 | 297 | 0.0 | 6.4 | 0.00 | 0.00 | 0.00 | 44 | 1016.9 |
| 20260509130123 | 24 | 229 | 0.0 | 8.0 | 0.00 | 0.00 | 0.00 | 45 | 1017.1 |
| 20260509124537 | 23 | 240 | 0.0 | 9.7 | 0.00 | 0.00 | 0.00 | 46 | 1017.1 |
| 20260509123104 | 23 | 204 | 0.0 | 12.9 | 0.00 | 0.00 | 0.00 | 48 | 1017.0 |
| 20260509121514 | 23 | 231 | 3.2 | 16.1 | 0.00 | 0.00 | 0.00 | 50 | 1017.2 |
| 20260509120023 | 23 | 233 | 0.0 | 3.2 | 0.00 | 0.00 | 0.00 | 52 | 1017.2 |
| 20260509114543 | 22 | 246 | 0.0 | 9.7 | 0.00 | 0.00 | 0.00 | 53 | 1017.4 |
| 20260509113043 | 22 | 289 | 0.0 | 1.6 | 0.00 | 0.00 | 0.00 | 54 | 1017.5 |
| 20260509111507 | 22 | 245 | 0.0 | 1.6 | 0.00 | 0.00 | 0.00 | 56 | 1017.7 |
| 20260509110026 | 22 | 255 | 0.0 | 0.0 | 0.00 | 0.00 | 0.00 | 58 | 1018.0 |
| 20260509104539 | 22 | 243 | 0.0 | 4.8 | 0.00 | 0.00 | 0.00 | 56 | 1018.2 |
| 20260509103002 | 21 | 235 | 0.0 | 1.6 | 0.00 | 0.00 | 0.00 | 58 | 1018.5 |
| 20260509101530 | 21 | 233 | 0.0 | 11.3 | 0.00 | 0.00 | 0.00 | 57 | 1018.6 |